Capitol Logistics 1146


LIRF
Leonardo da Vinci International Airport
Rome, IT
EBLG
Liège Airport
Liege, BE

Activity Log

Date Flight Route Aircraft Duration
11/13/2019 CPX746 Not Available B738 2h 12m

Route Details

Aircraft Information
Primary: Boeing 737-800BCF
Backup: Not Available
Route Data
Distance: 601nm
Sched. Duration: 1h 55m
Avg. Duration: 2h 12m (+58m)
Times Flown: 1
Recm'd Route: Not Available
Planned Altitude: 36,000ft
Origin Wx: LIRF 272320Z 24019KT 9999 SCT025 14/10 Q1009 NOSIG
Dest. Wx: EBLG 272320Z 27008KT 9999 SCT032 01/M01 Q1012 R22/591093 NOSIG
Notes:

Financial History
Total Freight: 15,840lbs
Average Load: 15,840lbs/flt
Fuel Used: 8,500lbs
Avg. Fuel Used: 8,500lbs/flt
Fuel Expense: $7,565
Avg. Fuel Expense: $7,565
Avg. Fuel Cost: $0.89/lbs
Total Gross Income: $34,848
Pilot Pay: $239
Total Expenses: $3,816
Total Revenue: $22,938
Average Revenue: $34,848.00